Time;durP1;ratioP1;P1;durP2;ratioP2;P2;SDS_P1;SDS_P2;PMS_P1;PMS_P2;Temp;Humidity;BMP_temperature;BMP_pressure;BME280_temperature;BME280_humidity;BME280_pressure;Samples;Min_cycle;Max_cycle;Signal;HPM_P1;HPM_P2
2022/10/17 00:01:41;;;;;;;30.48;16.30;;;16.00;99.90;;;;;;5063430;28;20154;-71
2022/10/17 00:04:07;;;;;;;31.98;17.80;;;15.90;99.90;;;;;;5064032;28;20020;-71
2022/10/17 00:06:33;;;;;;;24.25;17.30;;;15.90;99.90;;;;;;5064483;28;20536;-71
2022/10/17 00:08:58;;;;;;;25.80;16.08;;;15.90;99.90;;;;;;5064089;28;20032;-71
2022/10/17 00:11:24;;;;;;;25.20;17.42;;;15.80;99.90;;;;;;5060642;28;20123;-71
2022/10/17 00:13:52;;;;;;;33.88;16.25;;;15.90;99.90;;;;;;5062774;28;20339;-71
2022/10/17 00:16:27;;;;;;;25.75;17.48;;;15.70;99.90;;;;;;5058405;28;20174;-71
2022/10/17 00:18:53;;;;;;;31.02;18.23;;;15.70;99.90;;;;;;5064404;28;20061;-71
2022/10/17 00:21:20;;;;;;;29.40;18.27;;;15.70;99.90;;;;;;5062834;28;20116;-71
2022/10/17 00:23:46;;;;;;;29.58;15.93;;;15.70;99.90;;;;;;5062326;28;20042;-71
2022/10/17 00:26:13;;;;;;;32.25;20.70;;;15.60;99.90;;;;;;5061625;28;20033;-71
2022/10/17 00:28:38;;;;;;;43.38;19.20;;;15.60;99.90;;;;;;5062791;28;20032;-71
2022/10/17 00:31:05;;;;;;;60.75;22.58;;;15.60;99.90;;;;;;5058099;28;20037;-71
2022/10/17 00:33:33;;;;;;;31.45;18.05;;;15.40;99.90;;;;;;5061004;28;20017;-71
2022/10/17 00:36:12;;;;;;;29.25;18.40;;;15.50;99.90;;;;;;5061326;28;20029;-71
2022/10/17 00:38:39;;;;;;;21.35;14.52;;;15.50;99.90;;;;;;5059039;28;20028;-71
2022/10/17 00:41:07;;;;;;;30.63;17.17;;;15.40;99.90;;;;;;5066109;28;20024;-71
2022/10/17 00:43:53;;;;;;;33.53;17.58;;;15.40;99.90;;;;;;5060422;28;20031;-71
2022/10/17 00:46:20;;;;;;;25.27;14.73;;;15.50;99.90;;;;;;5061904;28;20029;-71
2022/10/17 00:48:47;;;;;;;29.20;17.20;;;15.40;99.90;;;;;;5063178;28;20025;-70
2022/10/17 00:51:13;;;;;;;30.52;17.23;;;15.50;99.90;;;;;;5058970;28;20024;-71
2022/10/17 00:53:39;;;;;;;26.58;16.73;;;15.50;99.90;;;;;;5061925;28;20029;-71
2022/10/17 00:56:05;;;;;;;22.88;15.80;;;15.50;99.90;;;;;;5061084;28;20105;-71
2022/10/17 00:58:31;;;;;;;20.50;16.42;;;15.60;99.90;;;;;;5062813;28;20063;-71
2022/10/17 01:00:57;;;;;;;27.95;16.70;;;15.50;99.90;;;;;;5064575;28;20121;-71
2022/10/17 01:03:22;;;;;;;24.77;15.90;;;15.60;99.90;;;;;;5078312;28;20035;-71
2022/10/17 01:05:48;;;;;;;25.65;16.55;;;15.60;99.90;;;;;;5060594;28;20028;-71
2022/10/17 01:08:14;;;;;;;28.45;16.55;;;15.60;99.90;;;;;;5059691;28;20477;-71
2022/10/17 01:10:52;;;;;;;26.70;17.33;;;15.60;99.90;;;;;;5062978;28;20048;-71
2022/10/17 01:13:29;;;;;;;27.85;17.20;;;15.50;99.90;;;;;;5063565;28;20032;-71
2022/10/17 01:16:31;;;;;;;21.35;14.55;;;15.60;99.90;;;;;;5063142;28;20103;-71
2022/10/17 01:19:15;;;;;;;33.80;18.35;;;15.70;99.90;;;;;;5062066;28;20025;-71
2022/10/17 01:21:49;;;;;;;17.17;13.73;;;15.60;99.90;;;;;;5059241;28;20025;-71
2022/10/17 01:24:48;;;;;;;27.02;15.18;;;15.60;99.90;;;;;;5058141;28;20173;-71
2022/10/17 01:27:48;;;;;;;27.65;14.82;;;15.70;99.90;;;;;;5062418;28;20029;-71
2022/10/17 01:30:42;;;;;;;18.70;13.48;;;15.60;99.90;;;;;;5057749;28;20044;-71
2022/10/17 01:33:38;;;;;;;24.08;14.43;;;15.60;99.90;;;;;;5062834;28;20032;-71
2022/10/17 01:36:12;;;;;;;28.42;13.98;;;15.70;99.90;;;;;;5055570;28;20040;-72
2022/10/17 01:39:10;;;;;;;27.23;14.75;;;15.50;99.90;;;;;;5069401;28;20040;-71
2022/10/17 01:41:50;;;;;;;20.58;14.48;;;15.50;99.90;;;;;;5060996;28;20033;-71
2022/10/17 01:44:27;;;;;;;43.88;17.92;;;15.50;99.90;;;;;;5080563;28;20031;-71
2022/10/17 01:47:20;;;;;;;35.85;16.73;;;15.50;99.90;;;;;;5067957;28;20149;-71
2022/10/17 01:49:50;;;;;;;25.08;16.25;;;15.50;99.90;;;;;;5062110;28;20033;-71
2022/10/17 01:52:23;;;;;;;23.98;15.13;;;15.50;99.90;;;;;;5062700;28;20028;-71
2022/10/17 01:54:57;;;;;;;32.85;16.95;;;15.50;99.90;;;;;;5063586;28;20020;-71
2022/10/17 01:57:32;;;;;;;33.88;18.60;;;15.50;99.90;;;;;;5062841;28;20469;-71
2022/10/17 02:00:01;;;;;;;71.43;23.02;;;15.50;99.90;;;;;;5062479;28;20056;-71
2022/10/17 02:02:27;;;;;;;29.98;17.48;;;15.50;99.90;;;;;;5077424;28;20052;-71
2022/10/17 02:04:55;;;;;;;87.25;26.58;;;15.50;99.90;;;;;;5066820;28;20032;-71
2022/10/17 02:07:21;;;;;;;22.45;15.40;;;15.60;99.90;;;;;;5056790;28;20029;-71
2022/10/17 02:09:47;;;;;;;92.13;27.17;;;15.50;99.90;;;;;;5061158;28;20033;-71
2022/10/17 02:12:15;;;;;;;69.35;23.00;;;15.50;99.90;;;;;;5064192;28;20047;-71
2022/10/17 02:14:53;;;;;;;33.65;17.10;;;15.50;99.90;;;;;;5058747;28;20511;-71
2022/10/17 02:17:41;;;;;;;26.58;17.50;;;15.50;99.90;;;;;;5061153;28;20480;-71
2022/10/17 02:20:36;;;;;;;34.35;18.67;;;15.60;99.90;;;;;;5058771;28;20071;-71
2022/10/17 02:23:09;;;;;;;32.47;16.77;;;15.50;99.90;;;;;;5060621;28;20127;-71
2022/10/17 02:26:04;;;;;;;40.65;18.83;;;15.60;99.90;;;;;;5059952;28;20032;-71
2022/10/17 02:28:49;;;;;;;23.95;16.17;;;15.60;99.90;;;;;;5063607;28;20028;-71
2022/10/17 02:31:50;;;;;;;37.58;19.10;;;15.60;99.90;;;;;;5059814;28;20036;-71
2022/10/17 02:34:18;;;;;;;21.77;16.80;;;15.60;99.90;;;;;;5062503;28;20094;-71
2022/10/17 02:36:51;;;;;;;29.85;19.02;;;15.70;99.90;;;;;;5065452;28;20029;-71
2022/10/17 02:39:20;;;;;;;30.30;18.48;;;15.60;99.90;;;;;;5067947;28;20028;-71
2022/10/17 02:41:48;;;;;;;27.25;14.80;;;15.60;99.90;;;;;;5059748;28;20063;-71
2022/10/17 02:44:14;;;;;;;37.40;18.33;;;15.60;99.90;;;;;;5060876;28;20088;-71
2022/10/17 02:46:41;;;;;;;31.25;17.65;;;15.60;99.90;;;;;;5062504;28;20477;-71
2022/10/17 02:49:30;;;;;;;24.90;16.17;;;15.60;99.90;;;;;;5063027;28;20044;-71
2022/10/17 02:51:58;;;;;;;24.08;17.20;;;15.50;99.90;;;;;;5063903;28;20451;-71
2022/10/17 02:54:37;;;;;;;27.95;19.40;;;15.60;99.90;;;;;;5062494;28;20065;-71
2022/10/17 02:57:46;;;;;;;23.73;17.85;;;15.60;99.90;;;;;;5066158;28;20055;-71
2022/10/17 03:00:14;;;;;;;30.50;17.75;;;15.60;99.90;;;;;;5063707;28;20098;-71
2022/10/17 03:02:45;;;;;;;21.98;17.50;;;15.60;99.90;;;;;;5058260;28;20432;-71
2022/10/17 03:05:13;;;;;;;32.88;20.63;;;15.70;99.90;;;;;;5062890;28;20041;-71
2022/10/17 03:07:39;;;;;;;29.77;18.25;;;15.60;99.90;;;;;;5058445;28;20033;-71
2022/10/17 03:10:05;;;;;;;28.20;19.80;;;15.70;99.90;;;;;;5064055;28;20127;-71
2022/10/17 03:12:31;;;;;;;26.63;15.30;;;15.70;99.90;;;;;;5060688;28;20017;-71
2022/10/17 03:14:57;;;;;;;24.67;15.63;;;15.70;99.90;;;;;;5058082;28;20056;-71
2022/10/17 03:17:22;;;;;;;27.35;17.77;;;15.80;99.90;;;;;;5062850;28;20028;-71
2022/10/17 03:19:48;;;;;;;31.83;20.92;;;15.80;99.90;;;;;;5063409;28;20036;-71
2022/10/17 03:22:13;;;;;;;35.50;20.45;;;15.80;99.90;;;;;;5073261;28;20043;-72
2022/10/17 03:24:39;;;;;;;17.90;14.15;;;15.80;99.90;;;;;;5065500;28;20484;-71
2022/10/17 03:27:05;;;;;;;21.70;15.63;;;15.90;99.90;;;;;;5066634;28;20025;-71
2022/10/17 03:29:30;;;;;;;27.52;18.38;;;15.90;99.90;;;;;;5067059;28;20029;-71
2022/10/17 03:31:56;;;;;;;22.30;14.65;;;15.90;99.90;;;;;;5068191;28;20031;-71
2022/10/17 03:34:21;;;;;;;29.25;20.05;;;15.90;99.90;;;;;;5060945;28;20025;-71
2022/10/17 03:36:47;;;;;;;26.10;16.52;;;15.90;99.90;;;;;;5061687;28;20024;-72
2022/10/17 03:39:13;;;;;;;28.27;17.38;;;15.90;99.90;;;;;;5064421;28;20106;-72
2022/10/17 03:41:38;;;;;;;23.88;16.50;;;15.90;99.90;;;;;;5064530;28;20020;-71
2022/10/17 03:44:04;;;;;;;27.90;17.00;;;15.90;99.90;;;;;;5067882;28;20032;-72
2022/10/17 03:46:29;;;;;;;30.67;19.15;;;16.00;99.90;;;;;;5068176;28;20063;-72
2022/10/17 03:48:55;;;;;;;26.77;17.70;;;16.00;99.90;;;;;;5066211;28;20036;-72
2022/10/17 03:51:21;;;;;;;31.13;19.92;;;16.00;99.90;;;;;;5066372;28;20032;-71
2022/10/17 03:53:46;;;;;;;24.15;16.77;;;16.10;99.90;;;;;;5063466;28;20478;-71
2022/10/17 03:56:24;;;;;;;27.08;17.42;;;16.10;99.90;;;;;;5073238;28;20024;-71
2022/10/17 03:58:49;;;;;;;29.52;18.15;;;16.10;99.90;;;;;;5058352;28;20017;-71
2022/10/17 04:01:16;;;;;;;29.98;16.65;;;16.10;99.90;;;;;;5063664;28;20095;-71
2022/10/17 04:03:42;;;;;;;28.45;18.58;;;16.10;99.90;;;;;;5070359;28;20059;-71
2022/10/17 04:06:11;;;;;;;22.85;16.85;;;16.20;99.90;;;;;;5065061;28;20474;-71
2022/10/17 04:08:37;;;;;;;20.92;15.23;;;16.30;99.90;;;;;;5063440;28;20111;-71
2022/10/17 04:11:05;;;;;;;28.83;17.45;;;16.30;99.90;;;;;;5065742;28;20029;-71
2022/10/17 04:13:32;;;;;;;24.52;17.55;;;16.30;99.90;;;;;;5067644;28;20051;-71
2022/10/17 04:16:02;;;;;;;21.50;16.40;;;16.30;99.90;;;;;;5058154;28;20033;-71
2022/10/17 04:18:28;;;;;;;19.02;14.35;;;16.40;99.90;;;;;;5063447;28;20054;-70
2022/10/17 04:20:53;;;;;;;27.83;17.88;;;16.40;99.90;;;;;;5072135;28;20025;-71
2022/10/17 04:23:19;;;;;;;24.58;16.58;;;16.40;99.90;;;;;;5061374;28;20032;-71
2022/10/17 04:25:45;;;;;;;25.88;17.50;;;16.50;99.90;;;;;;5062212;28;20032;-71
2022/10/17 04:28:11;;;;;;;20.13;12.32;;;16.50;99.90;;;;;;5058343;28;20046;-71
2022/10/17 04:30:37;;;;;;;24.63;15.13;;;16.60;99.90;;;;;;5070893;28;20488;-70
2022/10/17 04:33:03;;;;;;;22.88;14.80;;;16.60;99.90;;;;;;5057866;28;20027;-71
2022/10/17 04:35:28;;;;;;;21.08;14.45;;;16.60;99.90;;;;;;5061420;28;20076;-71
2022/10/17 04:37:54;;;;;;;22.67;15.18;;;16.60;99.90;;;;;;5060498;28;20028;-71
2022/10/17 04:40:20;;;;;;;21.13;14.68;;;16.70;99.90;;;;;;5063193;28;20025;-71
2022/10/17 04:42:45;;;;;;;21.30;13.65;;;16.70;99.90;;;;;;5063226;28;20033;-71
2022/10/17 04:45:11;;;;;;;19.90;14.18;;;16.70;99.90;;;;;;5065171;28;20017;-71
2022/10/17 04:47:36;;;;;;;21.05;13.00;;;16.70;99.90;;;;;;5064589;28;20059;-71
2022/10/17 04:50:03;;;;;;;18.98;11.25;;;16.70;99.90;;;;;;5062593;28;20107;-71
2022/10/17 04:52:29;;;;;;;20.63;13.02;;;16.70;99.90;;;;;;5065628;28;20028;-71
2022/10/17 04:54:54;;;;;;;20.63;14.43;;;16.70;99.90;;;;;;5063544;28;20023;-71
2022/10/17 04:57:20;;;;;;;23.30;13.73;;;16.70;99.90;;;;;;5065264;28;20052;-71
2022/10/17 04:59:46;;;;;;;24.73;13.68;;;16.80;99.90;;;;;;5066936;28;20036;-71
2022/10/17 05:02:11;;;;;;;24.23;14.60;;;16.80;99.90;;;;;;5063814;28;20069;-71
2022/10/17 05:04:37;;;;;;;15.07;12.13;;;16.80;99.90;;;;;;5066193;28;20028;-72
2022/10/17 05:07:02;;;;;;;19.02;13.50;;;16.70;99.90;;;;;;5063959;28;20517;-73
2022/10/17 05:09:29;;;;;;;17.15;13.20;;;16.80;99.90;;;;;;5062465;28;20038;-71
2022/10/17 05:11:54;;;;;;;19.65;14.18;;;16.80;99.90;;;;;;5057912;28;20037;-71
2022/10/17 05:14:20;;;;;;;20.95;14.13;;;16.80;99.90;;;;;;5057961;28;20556;-71
2022/10/17 05:16:45;;;;;;;20.90;13.63;;;16.90;99.90;;;;;;5067496;28;20493;-71
2022/10/17 05:19:11;;;;;;;23.73;13.48;;;16.90;99.90;;;;;;5063247;28;20025;-71
2022/10/17 05:21:37;;;;;;;17.02;13.88;;;16.90;99.90;;;;;;5060622;28;20016;-71
2022/10/17 05:24:12;;;;;;;18.13;12.88;;;16.90;99.90;;;;;;5060930;28;20478;-71
2022/10/17 05:26:38;;;;;;;18.13;12.93;;;16.90;99.90;;;;;;5063826;28;20036;-71
2022/10/17 05:29:04;;;;;;;17.27;12.60;;;16.90;99.90;;;;;;5058236;28;20021;-71
2022/10/17 05:31:31;;;;;;;16.65;12.55;;;16.90;99.90;;;;;;5057080;28;20194;-71
2022/10/17 05:34:03;;;;;;;18.80;13.00;;;16.90;99.90;;;;;;5066528;28;20967;-71
2022/10/17 05:36:29;;;;;;;20.50;13.25;;;16.90;99.90;;;;;;5060096;28;20226;-71
2022/10/17 05:38:54;;;;;;;17.45;12.90;;;16.90;99.90;;;;;;5055687;28;20119;-71
2022/10/17 05:41:20;;;;;;;15.93;13.52;;;17.00;99.90;;;;;;5060660;28;20370;-71
2022/10/17 05:43:46;;;;;;;18.80;13.48;;;16.90;99.90;;;;;;5056862;28;20034;-71
2022/10/17 05:46:12;;;;;;;18.20;13.63;;;17.00;99.90;;;;;;5062503;28;20039;-71
2022/10/17 05:48:37;;;;;;;16.08;10.63;;;16.90;99.90;;;;;;5062201;28;20043;-71
2022/10/17 05:51:06;;;;;;;18.17;13.80;;;16.90;99.90;;;;;;5056611;28;20021;-71
2022/10/17 05:53:35;;;;;;;17.60;13.10;;;16.90;99.90;;;;;;5057521;28;20021;-71
2022/10/17 05:56:03;;;;;;;20.35;13.80;;;16.90;99.90;;;;;;5064368;28;20021;-71
2022/10/17 05:58:29;;;;;;;21.55;13.45;;;16.90;99.90;;;;;;5065867;28;20792;-71
2022/10/17 06:01:00;;;;;;;17.98;12.65;;;16.90;99.90;;;;;;5057560;28;20063;-71
2022/10/17 06:03:25;;;;;;;16.08;13.68;;;16.90;99.90;;;;;;5068210;28;20025;-71
2022/10/17 06:05:51;;;;;;;18.10;11.57;;;16.90;99.90;;;;;;5060098;28;20028;-72
2022/10/17 06:08:17;;;;;;;18.08;12.13;;;16.90;99.90;;;;;;5069559;28;20021;-71
2022/10/17 06:10:43;;;;;;;14.82;12.20;;;17.00;99.90;;;;;;5057530;28;20061;-72
2022/10/17 06:13:08;;;;;;;23.40;18.33;;;17.00;99.90;;;;;;5064297;28;20706;-71
2022/10/17 06:15:34;;;;;;;20.63;13.50;;;17.00;99.90;;;;;;5062823;28;20045;-71
2022/10/17 06:17:59;;;;;;;16.13;12.73;;;17.00;99.90;;;;;;5066436;28;20515;-71
2022/10/17 06:20:25;;;;;;;14.88;10.82;;;17.00;99.90;;;;;;5062236;28;20089;-71
2022/10/17 06:22:51;;;;;;;18.67;11.73;;;17.00;99.90;;;;;;5059368;28;20024;-71
2022/10/17 06:25:16;;;;;;;15.65;11.93;;;17.10;99.90;;;;;;5061305;28;20036;-71
2022/10/17 06:27:42;;;;;;;15.20;12.38;;;17.10;99.90;;;;;;5058564;28;20035;-71
2022/10/17 06:30:08;;;;;;;15.18;12.27;;;17.10;99.90;;;;;;5062015;28;20101;-71
2022/10/17 06:32:33;;;;;;;16.35;12.02;;;17.10;99.90;;;;;;5069807;28;20029;-71
2022/10/17 06:34:59;;;;;;;17.02;11.77;;;17.10;99.90;;;;;;5062150;28;20391;-71
2022/10/17 06:37:24;;;;;;;16.38;11.40;;;17.10;99.90;;;;;;5063460;28;20020;-71
2022/10/17 06:39:50;;;;;;;19.50;12.13;;;17.20;99.90;;;;;;5064797;28;20426;-71
2022/10/17 06:42:16;;;;;;;17.13;12.32;;;17.20;99.90;;;;;;5060605;28;20025;-71
2022/10/17 06:44:41;;;;;;;17.35;11.60;;;17.20;99.90;;;;;;5066261;28;20036;-71
2022/10/17 06:47:09;;;;;;;12.45;9.88;;;17.20;99.90;;;;;;5062183;28;20039;-71
2022/10/17 06:49:34;;;;;;;14.13;10.15;;;17.20;99.90;;;;;;5054852;28;20477;-71
2022/10/17 06:52:00;;;;;;;16.02;9.43;;;17.20;99.90;;;;;;5058040;28;20031;-71
2022/10/17 06:54:26;;;;;;;16.63;10.15;;;17.20;99.90;;;;;;5065122;28;20526;-71
2022/10/17 06:56:52;;;;;;;14.38;10.35;;;17.30;99.90;;;;;;5063842;28;20024;-71
2022/10/17 06:59:18;;;;;;;12.90;10.50;;;17.30;99.90;;;;;;5061909;28;20461;-71
2022/10/17 07:01:43;;;;;;;15.25;9.75;;;17.40;99.90;;;;;;5068041;28;20064;-71
2022/10/17 07:04:09;;;;;;;13.27;9.38;;;17.40;99.90;;;;;;5060552;28;20048;-71
2022/10/17 07:06:35;;;;;;;16.27;9.55;;;17.40;99.90;;;;;;5058495;28;20036;-71
2022/10/17 07:09:01;;;;;;;14.93;10.20;;;17.50;99.90;;;;;;5061356;28;20025;-71
2022/10/17 07:11:27;;;;;;;14.18;9.70;;;17.50;99.90;;;;;;5062812;28;20084;-71
2022/10/17 07:13:53;;;;;;;12.55;8.88;;;17.50;99.90;;;;;;5055930;28;20419;-71
2022/10/17 07:16:20;;;;;;;13.45;8.98;;;17.50;99.90;;;;;;5067519;28;20059;-72
2022/10/17 07:18:48;;;;;;;14.68;10.10;;;17.50;99.90;;;;;;5059985;28;20025;-72
2022/10/17 07:21:14;;;;;;;9.70;8.23;;;17.60;99.90;;;;;;5064326;28;20021;-72
2022/10/17 07:23:40;;;;;;;10.60;7.38;;;17.70;99.90;;;;;;5057804;28;20111;-72
2022/10/17 07:26:09;;;;;;;14.50;7.78;;;17.70;99.90;;;;;;5059147;28;20025;-71
2022/10/17 07:28:37;;;;;;;11.65;8.55;;;17.80;99.90;;;;;;5060178;28;20500;-72
2022/10/17 07:31:07;;;;;;;12.43;7.85;;;17.70;99.90;;;;;;5057937;28;20111;-72
2022/10/17 07:33:33;;;;;;;11.15;7.75;;;17.80;99.90;;;;;;5064030;28;20017;-71
2022/10/17 07:35:59;;;;;;;12.38;7.30;;;17.90;99.90;;;;;;5061935;28;20393;-72
2022/10/17 07:38:28;;;;;;;8.93;7.38;;;18.00;99.90;;;;;;5059551;28;20074;-72
2022/10/17 07:41:00;;;;;;;9.55;6.75;;;18.10;99.90;;;;;;5058679;28;20028;-72
2022/10/17 07:43:26;;;;;;;16.15;7.30;;;18.10;99.90;;;;;;5063241;28;20032;-72
2022/10/17 07:45:53;;;;;;;16.02;7.85;;;18.10;99.90;;;;;;5059643;28;20041;-72
2022/10/17 07:48:20;;;;;;;10.85;6.93;;;18.20;99.90;;;;;;5061312;28;20110;-72
2022/10/17 07:50:47;;;;;;;15.95;7.78;;;18.10;99.90;;;;;;5057726;28;20054;-71
2022/10/17 07:53:12;;;;;;;10.43;6.70;;;18.30;99.90;;;;;;5063293;28;20035;-72
2022/10/17 07:55:39;;;;;;;10.25;6.07;;;18.30;99.90;;;;;;5063478;28;20480;-73
2022/10/17 07:58:06;;;;;;;10.80;6.40;;;18.30;99.90;;;;;;5061577;28;20032;-73
2022/10/17 08:00:32;;;;;;;8.35;5.95;;;18.40;99.90;;;;;;5059568;28;20024;-73
2022/10/17 08:02:58;;;;;;;11.52;6.82;;;18.40;99.90;;;;;;5065271;28;20445;-73
2022/10/17 08:05:23;;;;;;;13.52;6.28;;;18.50;99.90;;;;;;5062341;28;20570;-72
2022/10/17 08:07:49;;;;;;;9.68;6.40;;;18.50;99.90;;;;;;5065586;28;20032;-72
2022/10/17 08:10:15;;;;;;;9.30;6.07;;;18.50;99.90;;;;;;5062573;28;20402;-72
2022/10/17 08:12:41;;;;;;;13.75;6.10;;;18.60;99.90;;;;;;5057232;28;20441;-72
2022/10/17 08:15:08;;;;;;;7.45;5.72;;;18.70;99.90;;;;;;5057196;28;20060;-72
2022/10/17 08:17:35;;;;;;;10.75;7.18;;;18.80;99.90;;;;;;5062949;28;20082;-72
2022/10/17 08:20:01;;;;;;;10.75;6.07;;;18.80;99.90;;;;;;5062966;28;20020;-72
2022/10/17 08:22:27;;;;;;;12.48;6.35;;;18.80;99.90;;;;;;5048235;28;20440;-72
2022/10/17 08:24:53;;;;;;;10.70;5.90;;;18.80;99.90;;;;;;5054757;28;20113;-75
2022/10/17 08:27:28;;;;;;;8.18;6.07;;;18.90;99.90;;;;;;5062511;28;20021;-72
2022/10/17 08:29:53;;;;;;;10.40;5.78;;;18.90;99.90;;;;;;5061252;28;20392;-71
2022/10/17 08:32:25;;;;;;;10.25;6.70;;;18.90;99.90;;;;;;5061439;28;20059;-72
2022/10/17 08:34:51;;;;;;;7.90;6.20;;;18.90;99.90;;;;;;5064908;28;20438;-72
2022/10/17 08:37:17;;;;;;;10.02;5.68;;;19.00;99.90;;;;;;5058362;28;20035;-71
2022/10/17 08:39:43;;;;;;;7.82;6.22;;;18.90;99.90;;;;;;5060354;28;20111;-72
2022/10/17 08:42:27;;;;;;;8.75;5.97;;;18.90;99.90;;;;;;5060699;28;20021;-71
2022/10/17 08:45:08;;;;;;;6.78;5.68;;;19.00;99.90;;;;;;5057896;28;20082;-71
2022/10/17 08:47:39;;;;;;;9.48;5.68;;;19.00;99.90;;;;;;5057637;28;20032;-71
2022/10/17 08:50:28;;;;;;;13.33;5.63;;;19.00;99.90;;;;;;5057693;28;20401;-71
2022/10/17 08:52:59;;;;;;;12.27;6.00;;;19.00;99.90;;;;;;5067424;28;20332;-71
2022/10/17 08:55:38;;;;;;;9.30;6.25;;;19.10;99.90;;;;;;5060006;28;20029;-72
2022/10/17 08:58:13;;;;;;;13.98;6.60;;;19.10;99.90;;;;;;5056383;28;20019;-71
2022/10/17 09:00:48;;;;;;;10.52;5.93;;;19.10;99.90;;;;;;5057150;28;20029;-72
2022/10/17 09:03:32;;;;;;;13.68;7.70;;;19.10;99.90;;;;;;5059300;28;20016;-72
2022/10/17 09:06:24;;;;;;;13.63;6.25;;;19.10;99.90;;;;;;5063617;28;20036;-72
2022/10/17 09:09:01;;;;;;;8.23;6.63;;;19.10;99.90;;;;;;5060823;28;20048;-72
2022/10/17 09:11:50;;;;;;;10.82;6.78;;;19.00;99.90;;;;;;5071808;28;20044;-72
2022/10/17 09:14:44;;;;;;;9.02;6.93;;;19.00;99.90;;;;;;5068823;28;20033;-72
2022/10/17 09:17:29;;;;;;;11.13;6.80;;;19.00;99.90;;;;;;5070882;28;20045;-71
2022/10/17 09:20:13;;;;;;;9.73;7.03;;;19.00;99.90;;;;;;5066611;28;20017;-72
2022/10/17 09:22:55;;;;;;;11.98;7.43;;;19.00;99.90;;;;;;5064984;28;20033;-72
2022/10/17 09:25:21;;;;;;;9.70;6.18;;;19.00;99.90;;;;;;5059592;28;20017;-73
2022/10/17 09:27:51;;;;;;;14.43;7.65;;;18.90;99.90;;;;;;5064518;28;20021;-73
2022/10/17 09:30:33;;;;;;;11.18;8.10;;;18.90;99.90;;;;;;5058638;28;20090;-73
2022/10/17 09:32:59;;;;;;;8.93;7.53;;;19.00;99.90;;;;;;5065165;28;20039;-73
2022/10/17 09:35:26;;;;;;;12.23;8.32;;;18.90;99.90;;;;;;5059285;28;20024;-73
2022/10/17 09:37:53;;;;;;;14.82;9.07;;;18.80;99.90;;;;;;5062078;28;20035;-72
2022/10/17 09:40:31;;;;;;;14.70;9.35;;;18.80;99.90;;;;;;5063189;28;20036;-73
2022/10/17 09:42:58;;;;;;;13.95;9.65;;;18.80;99.90;;;;;;5061604;28;20107;-71
2022/10/17 09:45:25;;;;;;;22.10;11.43;;;18.80;99.90;;;;;;5061620;28;20031;-73
2022/10/17 09:48:01;;;;;;;12.85;9.30;;;18.80;99.90;;;;;;5065844;28;20057;-71
2022/10/17 09:50:32;;;;;;;15.80;9.95;;;18.90;99.90;;;;;;5061744;28;20045;-71
2022/10/17 09:53:14;;;;;;;15.32;9.23;;;18.90;99.90;;;;;;5057936;28;20028;-72
2022/10/17 09:55:54;;;;;;;16.70;10.45;;;18.90;99.90;;;;;;5061543;28;20028;-71
2022/10/17 09:58:20;;;;;;;20.45;9.82;;;18.80;99.90;;;;;;5057903;28;20106;-72
2022/10/17 10:00:47;;;;;;;17.38;9.63;;;18.80;99.90;;;;;;5056723;28;20090;-72
2022/10/17 10:03:20;;;;;;;15.73;9.65;;;18.70;99.90;;;;;;5065219;28;20046;-72
2022/10/17 10:06:12;;;;;;;17.25;10.68;;;18.70;99.90;;;;;;5057516;28;20028;-74
2022/10/17 10:08:49;;;;;;;14.40;9.38;;;18.70;99.90;;;;;;5061716;28;20033;-73
2022/10/17 10:11:16;;;;;;;18.77;10.80;;;18.80;99.90;;;;;;5065529;28;20032;-73
2022/10/17 10:13:42;;;;;;;18.10;12.30;;;18.70;99.90;;;;;;5067991;28;20082;-74
2022/10/17 10:16:42;;;;;;;21.05;12.40;;;18.70;99.90;;;;;;5063750;28;20029;-73
2022/10/17 10:19:25;;;;;;;17.52;11.18;;;18.60;99.90;;;;;;5052739;28;20071;-73
2022/10/17 10:21:56;;;;;;;19.23;10.85;;;18.70;99.90;;;;;;5056459;28;20094;-72
2022/10/17 10:24:22;;;;;;;18.90;10.75;;;18.70;99.90;;;;;;5057724;28;20032;-72
2022/10/17 10:26:49;;;;;;;20.10;10.90;;;18.70;99.90;;;;;;5054684;28;20021;-72
2022/10/17 10:29:21;;;;;;;22.33;11.32;;;18.70;99.90;;;;;;5068780;28;20033;-72
2022/10/17 10:31:47;;;;;;;36.10;13.50;;;18.60;99.90;;;;;;5070829;28;20051;-72
2022/10/17 10:34:15;;;;;;;14.63;11.25;;;18.60;99.90;;;;;;5055512;28;20091;-72
2022/10/17 10:36:48;;;;;;;14.57;10.05;;;18.70;99.90;;;;;;5064278;28;20041;-72
2022/10/17 10:39:41;;;;;;;13.57;9.00;;;18.80;99.90;;;;;;5060672;28;20021;-72
2022/10/17 10:42:36;;;;;;;16.15;11.18;;;18.90;99.90;;;;;;5060207;28;20400;-72
2022/10/17 10:45:13;;;;;;;17.08;10.60;;;19.00;99.90;;;;;;5057406;28;20049;-73
2022/10/17 10:47:48;;;;;;;15.20;9.82;;;19.00;99.90;;;;;;5059077;28;20481;-72
2022/10/17 10:50:38;;;;;;;16.40;8.73;;;19.00;99.90;;;;;;5061917;28;20474;-73
2022/10/17 10:53:27;;;;;;;16.60;9.68;;;19.00;99.90;;;;;;5066309;28;20112;-72
2022/10/17 10:56:04;;;;;;;15.35;10.18;;;19.00;99.90;;;;;;5062758;28;20037;-72
2022/10/17 10:58:36;;;;;;;22.85;10.85;;;19.10;99.90;;;;;;5060613;28;20037;-72
2022/10/17 11:01:24;;;;;;;11.68;9.10;;;19.10;99.90;;;;;;5065929;28;20025;-72
2022/10/17 11:03:54;;;;;;;19.67;11.60;;;19.20;99.90;;;;;;5056694;28;20017;-73
2022/10/17 11:06:28;;;;;;;14.30;10.05;;;19.10;99.90;;;;;;5064572;28;20071;-72
2022/10/17 11:09:02;;;;;;;15.10;11.07;;;19.20;99.90;;;;;;5055033;28;20028;-73
2022/10/17 11:11:38;;;;;;;17.65;11.18;;;19.20;99.90;;;;;;5056799;28;20438;-72
2022/10/17 11:14:39;;;;;;;17.27;10.95;;;19.20;99.90;;;;;;5067640;28;20021;-73
2022/10/17 11:17:33;;;;;;;17.67;10.65;;;19.20;99.90;;;;;;5060173;28;20057;-73
2022/10/17 11:20:08;;;;;;;13.98;9.98;;;19.30;99.90;;;;;;5058350;28;20040;-74
2022/10/17 11:23:20;;;;;;;20.27;11.27;;;19.30;99.90;;;;;;5056183;28;20017;-74
2022/10/17 11:25:48;;;;;;;20.48;11.50;;;19.30;99.90;;;;;;5034094;28;20068;-73
2022/10/17 11:28:20;;;;;;;17.75;11.75;;;19.30;99.90;;;;;;5059857;28;20024;-73
2022/10/17 11:30:52;;;;;;;21.05;12.63;;;19.40;99.90;;;;;;5064936;28;20099;-73
2022/10/17 11:33:26;;;;;;;20.42;12.85;;;19.30;99.90;;;;;;5061919;28;20116;-73
2022/10/17 11:35:57;;;;;;;19.25;11.60;;;19.30;99.90;;;;;;5056818;28;20477;-74
2022/10/17 11:38:34;;;;;;;18.52;11.82;;;19.30;99.90;;;;;;5058706;28;20086;-73
2022/10/17 11:41:00;;;;;;;28.73;12.57;;;19.30;99.90;;;;;;5062644;28;20033;-74
2022/10/17 11:44:03;;;;;;;19.83;11.77;;;19.30;99.90;;;;;;5069527;28;20511;-73
2022/10/17 11:46:30;;;;;;;18.55;11.18;;;19.20;99.90;;;;;;5063921;28;20047;-74
2022/10/17 11:48:59;;;;;;;24.75;13.10;;;19.20;99.90;;;;;;5065637;28;20536;-74
2022/10/17 11:51:25;;;;;;;19.63;12.57;;;19.30;99.90;;;;;;5065505;28;20078;-73
2022/10/17 11:54:01;;;;;;;16.17;13.02;;;19.40;99.90;;;;;;5062546;28;20503;-74
2022/10/17 11:57:02;;;;;;;17.80;12.73;;;19.40;99.90;;;;;;5061406;28;20385;-73
2022/10/17 11:59:43;;;;;;;20.73;12.85;;;19.30;99.90;;;;;;5066560;28;20045;-74
2022/10/17 12:02:22;;;;;;;14.45;10.45;;;19.40;99.90;;;;;;5065636;28;20469;-74
2022/10/17 12:05:04;;;;;;;20.05;10.63;;;19.40;99.90;;;;;;5061458;28;20029;-74
2022/10/17 12:07:33;;;;;;;14.88;9.20;;;19.40;99.90;;;;;;5062120;28;20104;-74
2022/10/17 12:10:18;;;;;;;12.25;8.82;;;19.40;99.90;;;;;;5063575;28;20120;-74
2022/10/17 12:12:44;;;;;;;17.67;9.23;;;19.50;99.90;;;;;;5064821;28;20541;-74
2022/10/17 12:15:19;;;;;;;11.38;7.95;;;19.40;99.90;;;;;;5064814;28;20036;-74
2022/10/17 12:17:53;;;;;;;14.23;7.55;;;19.40;99.90;;;;;;5059309;28;20029;-74
2022/10/17 12:20:24;;;;;;;12.10;6.53;;;19.50;99.90;;;;;;5063561;28;20020;-74
2022/10/17 12:22:51;;;;;;;13.32;7.63;;;19.40;99.90;;;;;;5064093;28;20025;-73
2022/10/17 12:25:30;;;;;;;12.80;6.93;;;19.40;99.90;;;;;;5060568;28;20060;-74
2022/10/17 12:28:05;;;;;;;10.63;7.50;;;19.40;99.90;;;;;;5063977;28;20068;-73
2022/10/17 12:30:32;;;;;;;11.70;7.88;;;19.40;99.90;;;;;;5065414;28;20037;-73
2022/10/17 12:32:59;;;;;;;13.82;7.80;;;19.40;99.90;;;;;;5061997;28;20074;-73
2022/10/17 12:35:26;;;;;;;12.00;7.93;;;19.40;99.90;;;;;;5068358;28;20021;-74
2022/10/17 12:37:52;;;;;;;15.82;8.25;;;19.40;99.90;;;;;;5079509;28;20390;-74
2022/10/17 12:40:36;;;;;;;14.95;8.07;;;19.40;99.90;;;;;;5055882;28;20029;-74
2022/10/17 12:43:27;;;;;;;16.05;8.30;;;19.40;99.90;;;;;;5072326;28;20017;-75
2022/10/17 12:46:00;;;;;;;13.70;8.68;;;19.50;99.90;;;;;;5062336;28;20038;-74
2022/10/17 12:48:35;;;;;;;13.70;8.63;;;19.60;99.90;;;;;;5062768;28;20029;-77
2022/10/17 12:51:16;;;;;;;13.25;9.18;;;19.60;99.90;;;;;;5066816;28;20382;-74
2022/10/17 12:53:59;;;;;;;19.88;9.10;;;19.60;99.90;;;;;;5067401;28;20397;-74